sensor_id;sensor_type;location;lat;lon;timestamp;P1;durP1;ratioP1;P2;durP2;ratioP2
78508;SDS011;67802;50.846;7.958;2023-04-09T00:01:09;12.10;;;6.70;;
78508;SDS011;67802;50.846;7.958;2023-04-09T00:03:35;12.77;;;6.97;;
78508;SDS011;67802;50.846;7.958;2023-04-09T00:06:02;12.18;;;6.45;;
78508;SDS011;67802;50.846;7.958;2023-04-09T00:08:28;11.82;;;6.65;;
78508;SDS011;67802;50.846;7.958;2023-04-09T00:10:54;11.50;;;6.32;;
78508;SDS011;67802;50.846;7.958;2023-04-09T00:13:21;11.82;;;6.55;;
78508;SDS011;67802;50.846;7.958;2023-04-09T00:15:46;12.43;;;6.70;;
78508;SDS011;67802;50.846;7.958;2023-04-09T00:18:12;11.38;;;6.18;;
78508;SDS011;67802;50.846;7.958;2023-04-09T00:20:38;10.32;;;6.00;;
78508;SDS011;67802;50.846;7.958;2023-04-09T00:23:03;10.55;;;6.47;;
78508;SDS011;67802;50.846;7.958;2023-04-09T00:25:29;10.55;;;6.32;;
78508;SDS011;67802;50.846;7.958;2023-04-09T00:27:54;10.95;;;6.20;;
78508;SDS011;67802;50.846;7.958;2023-04-09T00:30:20;11.35;;;6.13;;
78508;SDS011;67802;50.846;7.958;2023-04-09T00:32:46;11.48;;;6.30;;
78508;SDS011;67802;50.846;7.958;2023-04-09T00:35:12;10.77;;;6.10;;
78508;SDS011;67802;50.846;7.958;2023-04-09T00:37:37;10.38;;;5.85;;
78508;SDS011;67802;50.846;7.958;2023-04-09T00:40:03;10.95;;;6.25;;
78508;SDS011;67802;50.846;7.958;2023-04-09T00:42:32;9.15;;;5.45;;
78508;SDS011;67802;50.846;7.958;2023-04-09T00:44:58;10.48;;;6.07;;
78508;SDS011;67802;50.846;7.958;2023-04-09T00:47:25;10.60;;;5.80;;
78508;SDS011;67802;50.846;7.958;2023-04-09T00:49:52;10.57;;;5.43;;
78508;SDS011;67802;50.846;7.958;2023-04-09T00:52:17;10.25;;;5.57;;
78508;SDS011;67802;50.846;7.958;2023-04-09T00:54:42;10.77;;;5.97;;
78508;SDS011;67802;50.846;7.958;2023-04-09T00:57:08;10.85;;;6.13;;
78508;SDS011;67802;50.846;7.958;2023-04-09T00:59:35;9.90;;;5.63;;
78508;SDS011;67802;50.846;7.958;2023-04-09T01:02:00;9.40;;;5.03;;
78508;SDS011;67802;50.846;7.958;2023-04-09T01:04:26;10.65;;;5.80;;
78508;SDS011;67802;50.846;7.958;2023-04-09T01:06:52;9.43;;;5.57;;
78508;SDS011;67802;50.846;7.958;2023-04-09T01:14:53;10.00;;;5.38;;
78508;SDS011;67802;50.846;7.958;2023-04-09T01:17:30;10.10;;;5.22;;
78508;SDS011;67802;50.846;7.958;2023-04-09T01:20:27;8.95;;;4.93;;
78508;SDS011;67802;50.846;7.958;2023-04-09T01:28:35;8.65;;;4.82;;
78508;SDS011;67802;50.846;7.958;2023-04-09T01:31:08;9.57;;;5.50;;
78508;SDS011;67802;50.846;7.958;2023-04-09T01:33:37;8.45;;;4.60;;
78508;SDS011;67802;50.846;7.958;2023-04-09T01:36:05;9.45;;;4.82;;
78508;SDS011;67802;50.846;7.958;2023-04-09T01:38:31;8.70;;;5.05;;
78508;SDS011;67802;50.846;7.958;2023-04-09T01:40:59;8.95;;;4.95;;
78508;SDS011;67802;50.846;7.958;2023-04-09T01:43:26;8.32;;;4.53;;
78508;SDS011;67802;50.846;7.958;2023-04-09T01:45:53;8.15;;;4.68;;
78508;SDS011;67802;50.846;7.958;2023-04-09T01:48:19;7.72;;;4.40;;
78508;SDS011;67802;50.846;7.958;2023-04-09T01:50:45;8.82;;;4.57;;
78508;SDS011;67802;50.846;7.958;2023-04-09T01:53:10;8.77;;;4.88;;
78508;SDS011;67802;50.846;7.958;2023-04-09T01:55:36;7.35;;;4.30;;
78508;SDS011;67802;50.846;7.958;2023-04-09T01:58:01;9.63;;;4.53;;
78508;SDS011;67802;50.846;7.958;2023-04-09T02:00:29;7.78;;;4.40;;
78508;SDS011;67802;50.846;7.958;2023-04-09T02:03:10;8.02;;;3.95;;
78508;SDS011;67802;50.846;7.958;2023-04-09T02:05:37;7.60;;;4.35;;
78508;SDS011;67802;50.846;7.958;2023-04-09T02:08:08;7.60;;;4.45;;
78508;SDS011;67802;50.846;7.958;2023-04-09T02:10:35;8.55;;;4.55;;
78508;SDS011;67802;50.846;7.958;2023-04-09T02:13:04;8.07;;;4.28;;
78508;SDS011;67802;50.846;7.958;2023-04-09T02:15:33;7.30;;;4.20;;
78508;SDS011;67802;50.846;7.958;2023-04-09T02:18:02;7.65;;;3.80;;
78508;SDS011;67802;50.846;7.958;2023-04-09T02:20:27;7.63;;;4.10;;
78508;SDS011;67802;50.846;7.958;2023-04-09T02:22:53;7.68;;;4.03;;
78508;SDS011;67802;50.846;7.958;2023-04-09T02:25:18;7.57;;;4.00;;
78508;SDS011;67802;50.846;7.958;2023-04-09T02:27:43;8.10;;;4.15;;
78508;SDS011;67802;50.846;7.958;2023-04-09T02:30:09;7.22;;;3.85;;
78508;SDS011;67802;50.846;7.958;2023-04-09T02:32:34;7.40;;;3.92;;
78508;SDS011;67802;50.846;7.958;2023-04-09T02:35:00;6.93;;;3.63;;
78508;SDS011;67802;50.846;7.958;2023-04-09T02:37:25;7.35;;;3.83;;
78508;SDS011;67802;50.846;7.958;2023-04-09T02:39:50;6.65;;;3.50;;
78508;SDS011;67802;50.846;7.958;2023-04-09T02:42:15;7.07;;;3.83;;
78508;SDS011;67802;50.846;7.958;2023-04-09T02:44:41;7.47;;;4.07;;
78508;SDS011;67802;50.846;7.958;2023-04-09T02:47:06;6.63;;;3.72;;
78508;SDS011;67802;50.846;7.958;2023-04-09T02:49:31;6.80;;;3.78;;
78508;SDS011;67802;50.846;7.958;2023-04-09T02:51:57;7.50;;;3.63;;
78508;SDS011;67802;50.846;7.958;2023-04-09T02:54:22;6.90;;;4.07;;
78508;SDS011;67802;50.846;7.958;2023-04-09T02:56:47;6.90;;;3.73;;
78508;SDS011;67802;50.846;7.958;2023-04-09T02:59:12;6.00;;;3.20;;
78508;SDS011;67802;50.846;7.958;2023-04-09T03:01:38;6.45;;;3.53;;
78508;SDS011;67802;50.846;7.958;2023-04-09T03:04:03;6.22;;;3.15;;
78508;SDS011;67802;50.846;7.958;2023-04-09T03:06:28;7.13;;;3.78;;
78508;SDS011;67802;50.846;7.958;2023-04-09T03:08:54;5.77;;;3.20;;
78508;SDS011;67802;50.846;7.958;2023-04-09T03:11:19;7.85;;;3.80;;
78508;SDS011;67802;50.846;7.958;2023-04-09T03:13:44;6.22;;;3.35;;
78508;SDS011;67802;50.846;7.958;2023-04-09T03:16:10;6.60;;;3.67;;
78508;SDS011;67802;50.846;7.958;2023-04-09T03:18:35;6.13;;;3.35;;
78508;SDS011;67802;50.846;7.958;2023-04-09T03:21:04;6.50;;;3.17;;
78508;SDS011;67802;50.846;7.958;2023-04-09T03:23:31;7.10;;;3.50;;
78508;SDS011;67802;50.846;7.958;2023-04-09T03:26:02;6.18;;;3.30;;
78508;SDS011;67802;50.846;7.958;2023-04-09T03:28:28;6.60;;;3.20;;
78508;SDS011;67802;50.846;7.958;2023-04-09T03:30:54;6.75;;;3.25;;
78508;SDS011;67802;50.846;7.958;2023-04-09T03:33:19;6.13;;;3.40;;
78508;SDS011;67802;50.846;7.958;2023-04-09T03:35:44;5.97;;;2.92;;
78508;SDS011;67802;50.846;7.958;2023-04-09T03:38:10;6.20;;;3.20;;
78508;SDS011;67802;50.846;7.958;2023-04-09T03:40:35;5.87;;;3.10;;
78508;SDS011;67802;50.846;7.958;2023-04-09T03:43:00;5.55;;;2.95;;
78508;SDS011;67802;50.846;7.958;2023-04-09T03:45:26;7.57;;;3.38;;
78508;SDS011;67802;50.846;7.958;2023-04-09T03:47:51;5.07;;;2.83;;
78508;SDS011;67802;50.846;7.958;2023-04-09T03:50:16;5.53;;;2.97;;
78508;SDS011;67802;50.846;7.958;2023-04-09T03:52:41;7.22;;;3.13;;
78508;SDS011;67802;50.846;7.958;2023-04-09T03:55:07;7.17;;;3.70;;
78508;SDS011;67802;50.846;7.958;2023-04-09T03:57:33;6.53;;;3.30;;
78508;SDS011;67802;50.846;7.958;2023-04-09T03:59:58;6.47;;;3.50;;
78508;SDS011;67802;50.846;7.958;2023-04-09T04:02:23;6.77;;;3.20;;
78508;SDS011;67802;50.846;7.958;2023-04-09T04:04:50;5.65;;;2.88;;
78508;SDS011;67802;50.846;7.958;2023-04-09T04:07:16;6.20;;;3.13;;
78508;SDS011;67802;50.846;7.958;2023-04-09T04:09:41;6.05;;;3.03;;
78508;SDS011;67802;50.846;7.958;2023-04-09T04:12:07;5.47;;;2.90;;
78508;SDS011;67802;50.846;7.958;2023-04-09T04:14:32;5.35;;;2.78;;
78508;SDS011;67802;50.846;7.958;2023-04-09T04:16:57;6.50;;;2.87;;
78508;SDS011;67802;50.846;7.958;2023-04-09T04:19:23;5.95;;;3.05;;
78508;SDS011;67802;50.846;7.958;2023-04-09T04:21:48;5.72;;;2.97;;
78508;SDS011;67802;50.846;7.958;2023-04-09T04:24:13;5.90;;;2.83;;
78508;SDS011;67802;50.846;7.958;2023-04-09T04:26:38;5.40;;;2.83;;
78508;SDS011;67802;50.846;7.958;2023-04-09T04:29:04;5.82;;;2.95;;
78508;SDS011;67802;50.846;7.958;2023-04-09T04:31:29;7.15;;;3.22;;
78508;SDS011;67802;50.846;7.958;2023-04-09T04:33:54;6.22;;;2.78;;
78508;SDS011;67802;50.846;7.958;2023-04-09T04:36:20;5.50;;;2.77;;
78508;SDS011;67802;50.846;7.958;2023-04-09T04:38:45;5.07;;;2.80;;
78508;SDS011;67802;50.846;7.958;2023-04-09T04:41:10;5.72;;;2.78;;
78508;SDS011;67802;50.846;7.958;2023-04-09T04:43:36;5.65;;;2.90;;
78508;SDS011;67802;50.846;7.958;2023-04-09T04:46:01;5.97;;;3.38;;
78508;SDS011;67802;50.846;7.958;2023-04-09T04:48:29;5.75;;;2.70;;
78508;SDS011;67802;50.846;7.958;2023-04-09T04:50:59;5.43;;;2.70;;
78508;SDS011;67802;50.846;7.958;2023-04-09T04:53:25;5.80;;;3.05;;
78508;SDS011;67802;50.846;7.958;2023-04-09T04:55:51;5.88;;;2.88;;
78508;SDS011;67802;50.846;7.958;2023-04-09T04:58:17;6.57;;;2.80;;
78508;SDS011;67802;50.846;7.958;2023-04-09T05:00:43;6.22;;;2.97;;
78508;SDS011;67802;50.846;7.958;2023-04-09T05:03:09;5.40;;;2.72;;
78508;SDS011;67802;50.846;7.958;2023-04-09T05:05:35;5.95;;;2.95;;
78508;SDS011;67802;50.846;7.958;2023-04-09T05:08:00;5.85;;;3.10;;
78508;SDS011;67802;50.846;7.958;2023-04-09T05:10:25;5.17;;;2.80;;
78508;SDS011;67802;50.846;7.958;2023-04-09T05:12:50;6.13;;;2.80;;
78508;SDS011;67802;50.846;7.958;2023-04-09T05:15:16;5.03;;;2.53;;
78508;SDS011;67802;50.846;7.958;2023-04-09T05:17:42;5.75;;;2.85;;
78508;SDS011;67802;50.846;7.958;2023-04-09T05:20:08;5.65;;;2.90;;
78508;SDS011;67802;50.846;7.958;2023-04-09T05:22:33;5.45;;;2.90;;
78508;SDS011;67802;50.846;7.958;2023-04-09T05:25:00;5.70;;;2.72;;
78508;SDS011;67802;50.846;7.958;2023-04-09T05:27:25;5.22;;;2.78;;
78508;SDS011;67802;50.846;7.958;2023-04-09T05:29:51;6.70;;;3.00;;
78508;SDS011;67802;50.846;7.958;2023-04-09T05:32:16;5.70;;;2.55;;
78508;SDS011;67802;50.846;7.958;2023-04-09T05:34:42;6.57;;;2.90;;
78508;SDS011;67802;50.846;7.958;2023-04-09T05:37:07;4.87;;;2.60;;
78508;SDS011;67802;50.846;7.958;2023-04-09T05:39:32;5.32;;;2.70;;
78508;SDS011;67802;50.846;7.958;2023-04-09T05:41:58;7.35;;;2.67;;
78508;SDS011;67802;50.846;7.958;2023-04-09T05:44:23;5.77;;;2.97;;
78508;SDS011;67802;50.846;7.958;2023-04-09T05:46:48;5.70;;;3.08;;
78508;SDS011;67802;50.846;7.958;2023-04-09T05:49:13;5.57;;;2.50;;
78508;SDS011;67802;50.846;7.958;2023-04-09T05:51:39;4.93;;;2.45;;
78508;SDS011;67802;50.846;7.958;2023-04-09T05:54:04;5.57;;;2.60;;
78508;SDS011;67802;50.846;7.958;2023-04-09T05:56:29;5.10;;;2.65;;
78508;SDS011;67802;50.846;7.958;2023-04-09T05:58:55;6.32;;;2.90;;
78508;SDS011;67802;50.846;7.958;2023-04-09T06:01:20;6.40;;;3.08;;
78508;SDS011;67802;50.846;7.958;2023-04-09T06:03:46;5.40;;;2.60;;
78508;SDS011;67802;50.846;7.958;2023-04-09T06:06:11;5.00;;;2.37;;
78508;SDS011;67802;50.846;7.958;2023-04-09T06:08:37;5.57;;;2.83;;
78508;SDS011;67802;50.846;7.958;2023-04-09T06:11:03;5.53;;;2.85;;
78508;SDS011;67802;50.846;7.958;2023-04-09T06:13:28;5.53;;;2.70;;
78508;SDS011;67802;50.846;7.958;2023-04-09T06:15:53;5.97;;;2.63;;
78508;SDS011;67802;50.846;7.958;2023-04-09T06:18:19;5.78;;;2.50;;
78508;SDS011;67802;50.846;7.958;2023-04-09T06:20:44;5.22;;;2.53;;
78508;SDS011;67802;50.846;7.958;2023-04-09T06:23:09;5.32;;;2.78;;
78508;SDS011;67802;50.846;7.958;2023-04-09T06:25:35;6.53;;;2.72;;
78508;SDS011;67802;50.846;7.958;2023-04-09T06:28:00;5.78;;;2.85;;
78508;SDS011;67802;50.846;7.958;2023-04-09T06:30:27;5.80;;;2.70;;
78508;SDS011;67802;50.846;7.958;2023-04-09T06:32:52;6.43;;;2.90;;
78508;SDS011;67802;50.846;7.958;2023-04-09T06:35:18;5.32;;;2.60;;
78508;SDS011;67802;50.846;7.958;2023-04-09T06:37:43;15.82;;;3.38;;
78508;SDS011;67802;50.846;7.958;2023-04-09T06:40:09;5.93;;;2.72;;
78508;SDS011;67802;50.846;7.958;2023-04-09T06:42:35;5.82;;;2.97;;
78508;SDS011;67802;50.846;7.958;2023-04-09T06:45:00;5.82;;;2.92;;
78508;SDS011;67802;50.846;7.958;2023-04-09T06:47:25;6.38;;;3.13;;
78508;SDS011;67802;50.846;7.958;2023-04-09T06:49:51;5.17;;;2.57;;
78508;SDS011;67802;50.846;7.958;2023-04-09T06:52:16;6.00;;;2.75;;
78508;SDS011;67802;50.846;7.958;2023-04-09T06:54:41;5.93;;;2.78;;
78508;SDS011;67802;50.846;7.958;2023-04-09T06:57:07;5.72;;;2.72;;
78508;SDS011;67802;50.846;7.958;2023-04-09T06:59:32;5.63;;;2.75;;
78508;SDS011;67802;50.846;7.958;2023-04-09T07:01:58;5.45;;;2.83;;
78508;SDS011;67802;50.846;7.958;2023-04-09T07:04:24;4.97;;;2.83;;
78508;SDS011;67802;50.846;7.958;2023-04-09T07:06:50;5.65;;;2.92;;
78508;SDS011;67802;50.846;7.958;2023-04-09T07:09:18;5.97;;;3.03;;
78508;SDS011;67802;50.846;7.958;2023-04-09T07:11:44;5.35;;;2.92;;
78508;SDS011;67802;50.846;7.958;2023-04-09T07:14:09;5.38;;;2.63;;
78508;SDS011;67802;50.846;7.958;2023-04-09T07:16:34;5.72;;;2.88;;
78508;SDS011;67802;50.846;7.958;2023-04-09T07:19:00;5.90;;;2.80;;
78508;SDS011;67802;50.846;7.958;2023-04-09T07:21:25;5.88;;;3.25;;
78508;SDS011;67802;50.846;7.958;2023-04-09T07:23:52;5.45;;;2.80;;
78508;SDS011;67802;50.846;7.958;2023-04-09T07:26:17;4.88;;;2.58;;
78508;SDS011;67802;50.846;7.958;2023-04-09T07:28:43;5.97;;;2.72;;
78508;SDS011;67802;50.846;7.958;2023-04-09T07:31:08;5.43;;;2.65;;
78508;SDS011;67802;50.846;7.958;2023-04-09T07:33:33;7.40;;;3.33;;
78508;SDS011;67802;50.846;7.958;2023-04-09T07:35:59;9.55;;;5.50;;
78508;SDS011;67802;50.846;7.958;2023-04-09T07:38:24;9.32;;;5.07;;
78508;SDS011;67802;50.846;7.958;2023-04-09T07:40:51;8.90;;;4.88;;
78508;SDS011;67802;50.846;7.958;2023-04-09T07:43:17;12.82;;;4.88;;
78508;SDS011;67802;50.846;7.958;2023-04-09T07:45:42;8.13;;;4.23;;
78508;SDS011;67802;50.846;7.958;2023-04-09T07:48:08;8.68;;;4.43;;
78508;SDS011;67802;50.846;7.958;2023-04-09T07:50:33;7.68;;;4.15;;
78508;SDS011;67802;50.846;7.958;2023-04-09T07:52:59;7.65;;;4.22;;
78508;SDS011;67802;50.846;7.958;2023-04-09T07:55:24;7.72;;;3.97;;
78508;SDS011;67802;50.846;7.958;2023-04-09T07:57:49;7.53;;;3.78;;
78508;SDS011;67802;50.846;7.958;2023-04-09T08:00:15;8.00;;;4.32;;
78508;SDS011;67802;50.846;7.958;2023-04-09T08:02:41;7.05;;;4.18;;
78508;SDS011;67802;50.846;7.958;2023-04-09T08:05:07;7.13;;;3.85;;
78508;SDS011;67802;50.846;7.958;2023-04-09T08:07:33;7.22;;;3.92;;
78508;SDS011;67802;50.846;7.958;2023-04-09T08:09:58;7.63;;;4.00;;
78508;SDS011;67802;50.846;7.958;2023-04-09T08:12:24;7.18;;;3.80;;
78508;SDS011;67802;50.846;7.958;2023-04-09T08:14:49;6.90;;;3.80;;
78508;SDS011;67802;50.846;7.958;2023-04-09T08:17:14;8.10;;;4.00;;
78508;SDS011;67802;50.846;7.958;2023-04-09T08:19:40;6.20;;;3.72;;
78508;SDS011;67802;50.846;7.958;2023-04-09T08:22:05;6.93;;;3.92;;
78508;SDS011;67802;50.846;7.958;2023-04-09T08:24:30;6.43;;;3.42;;
78508;SDS011;67802;50.846;7.958;2023-04-09T08:26:56;9.05;;;3.60;;
78508;SDS011;67802;50.846;7.958;2023-04-09T08:29:21;6.38;;;3.50;;
78508;SDS011;67802;50.846;7.958;2023-04-09T08:31:47;7.87;;;3.83;;
78508;SDS011;67802;50.846;7.958;2023-04-09T08:34:12;7.00;;;3.45;;
78508;SDS011;67802;50.846;7.958;2023-04-09T08:36:39;6.72;;;3.60;;
78508;SDS011;67802;50.846;7.958;2023-04-09T08:39:05;8.38;;;3.70;;
78508;SDS011;67802;50.846;7.958;2023-04-09T08:41:30;6.53;;;3.78;;
78508;SDS011;67802;50.846;7.958;2023-04-09T08:43:56;6.47;;;3.40;;
78508;SDS011;67802;50.846;7.958;2023-04-09T08:46:22;8.00;;;4.13;;
78508;SDS011;67802;50.846;7.958;2023-04-09T08:48:49;7.43;;;3.95;;
78508;SDS011;67802;50.846;7.958;2023-04-09T08:51:15;6.43;;;3.58;;
78508;SDS011;67802;50.846;7.958;2023-04-09T08:53:45;6.97;;;3.75;;
78508;SDS011;67802;50.846;7.958;2023-04-09T08:56:17;6.50;;;3.75;;
78508;SDS011;67802;50.846;7.958;2023-04-09T08:58:44;9.45;;;3.70;;
78508;SDS011;67802;50.846;7.958;2023-04-09T09:01:17;8.98;;;3.72;;
78508;SDS011;67802;50.846;7.958;2023-04-09T09:03:53;6.45;;;3.30;;
78508;SDS011;67802;50.846;7.958;2023-04-09T09:06:20;6.95;;;3.70;;
78508;SDS011;67802;50.846;7.958;2023-04-09T09:09:08;6.30;;;3.40;;
78508;SDS011;67802;50.846;7.958;2023-04-09T09:16:35;6.00;;;3.25;;
78508;SDS011;67802;50.846;7.958;2023-04-09T09:21:54;7.32;;;3.72;;
78508;SDS011;67802;50.846;7.958;2023-04-09T09:24:25;9.27;;;3.63;;
78508;SDS011;67802;50.846;7.958;2023-04-09T09:26:51;6.13;;;3.75;;
78508;SDS011;67802;50.846;7.958;2023-04-09T09:29:21;7.05;;;3.58;;
78508;SDS011;67802;50.846;7.958;2023-04-09T09:31:47;7.22;;;3.95;;
78508;SDS011;67802;50.846;7.958;2023-04-09T09:34:14;6.68;;;3.50;;
78508;SDS011;67802;50.846;7.958;2023-04-09T09:36:43;6.40;;;3.60;;
78508;SDS011;67802;50.846;7.958;2023-04-09T09:39:10;6.43;;;3.35;;
78508;SDS011;67802;50.846;7.958;2023-04-09T09:41:37;6.40;;;3.67;;
78508;SDS011;67802;50.846;7.958;2023-04-09T09:44:03;6.32;;;3.72;;
78508;SDS011;67802;50.846;7.958;2023-04-09T09:46:33;7.60;;;4.25;;
78508;SDS011;67802;50.846;7.958;2023-04-09T09:49:00;6.95;;;4.13;;
78508;SDS011;67802;50.846;7.958;2023-04-09T09:51:25;6.27;;;3.50;;
78508;SDS011;67802;50.846;7.958;2023-04-09T09:53:53;6.60;;;4.00;;
78508;SDS011;67802;50.846;7.958;2023-04-09T09:56:21;6.38;;;3.40;;
78508;SDS011;67802;50.846;7.958;2023-04-09T09:58:53;6.20;;;3.35;;
78508;SDS011;67802;50.846;7.958;2023-04-09T10:01:24;6.50;;;3.75;;
78508;SDS011;67802;50.846;7.958;2023-04-09T10:03:51;6.28;;;3.40;;
78508;SDS011;67802;50.846;7.958;2023-04-09T10:06:18;6.45;;;3.55;;
78508;SDS011;67802;50.846;7.958;2023-04-09T10:08:43;6.43;;;3.22;;
78508;SDS011;67802;50.846;7.958;2023-04-09T10:11:11;5.82;;;3.40;;
78508;SDS011;67802;50.846;7.958;2023-04-09T10:13:38;6.43;;;3.78;;
78508;SDS011;67802;50.846;7.958;2023-04-09T10:16:05;6.13;;;3.38;;
78508;SDS011;67802;50.846;7.958;2023-04-09T10:18:32;6.55;;;3.85;;
78508;SDS011;67802;50.846;7.958;2023-04-09T10:21:22;7.32;;;3.50;;
78508;SDS011;67802;50.846;7.958;2023-04-09T10:23:54;6.13;;;3.28;;
78508;SDS011;67802;50.846;7.958;2023-04-09T10:26:22;5.95;;;2.92;;
78508;SDS011;67802;50.846;7.958;2023-04-09T10:34:17;6.28;;;3.58;;
78508;SDS011;67802;50.846;7.958;2023-04-09T10:36:45;6.07;;;3.40;;
78508;SDS011;67802;50.846;7.958;2023-04-09T10:39:15;6.03;;;3.17;;
78508;SDS011;67802;50.846;7.958;2023-04-09T10:41:41;6.38;;;3.38;;
78508;SDS011;67802;50.846;7.958;2023-04-09T10:44:23;6.15;;;3.15;;
78508;SDS011;67802;50.846;7.958;2023-04-09T10:46:53;5.55;;;3.05;;
78508;SDS011;67802;50.846;7.958;2023-04-09T10:49:23;5.68;;;3.25;;
78508;SDS011;67802;50.846;7.958;2023-04-09T10:59:47;6.47;;;3.50;;
78508;SDS011;67802;50.846;7.958;2023-04-09T11:05:05;6.38;;;3.53;;
78508;SDS011;67802;50.846;7.958;2023-04-09T11:10:20;5.55;;;2.92;;
78508;SDS011;67802;50.846;7.958;2023-04-09T11:12:49;6.38;;;3.20;;
78508;SDS011;67802;50.846;7.958;2023-04-09T11:15:18;4.97;;;2.85;;
78508;SDS011;67802;50.846;7.958;2023-04-09T11:17:45;5.90;;;3.03;;
78508;SDS011;67802;50.846;7.958;2023-04-09T11:20:11;5.82;;;3.00;;
78508;SDS011;67802;50.846;7.958;2023-04-09T11:22:37;5.97;;;3.00;;
78508;SDS011;67802;50.846;7.958;2023-04-09T11:25:03;5.93;;;3.22;;
78508;SDS011;67802;50.846;7.958;2023-04-09T11:27:28;5.60;;;2.78;;
78508;SDS011;67802;50.846;7.958;2023-04-09T11:29:54;5.30;;;2.90;;
78508;SDS011;67802;50.846;7.958;2023-04-09T11:32:20;5.68;;;3.00;;
78508;SDS011;67802;50.846;7.958;2023-04-09T11:34:45;5.38;;;2.60;;
78508;SDS011;67802;50.846;7.958;2023-04-09T11:37:14;5.50;;;3.15;;
78508;SDS011;67802;50.846;7.958;2023-04-09T11:39:42;5.53;;;2.60;;
78508;SDS011;67802;50.846;7.958;2023-04-09T11:42:12;6.88;;;2.92;;
78508;SDS011;67802;50.846;7.958;2023-04-09T11:44:43;5.13;;;2.70;;
78508;SDS011;67802;50.846;7.958;2023-04-09T11:47:09;5.28;;;2.63;;
78508;SDS011;67802;50.846;7.958;2023-04-09T11:49:35;5.30;;;2.75;;
78508;SDS011;67802;50.846;7.958;2023-04-09T11:52:01;4.97;;;2.72;;
78508;SDS011;67802;50.846;7.958;2023-04-09T11:54:31;5.30;;;2.90;;
78508;SDS011;67802;50.846;7.958;2023-04-09T11:57:02;5.85;;;2.50;;
78508;SDS011;67802;50.846;7.958;2023-04-09T11:59:27;6.05;;;3.05;;
78508;SDS011;67802;50.846;7.958;2023-04-09T12:01:53;5.78;;;3.13;;
78508;SDS011;67802;50.846;7.958;2023-04-09T12:04:21;6.60;;;3.55;;
78508;SDS011;67802;50.846;7.958;2023-04-09T12:06:47;5.55;;;2.83;;
78508;SDS011;67802;50.846;7.958;2023-04-09T12:09:12;5.70;;;2.80;;
78508;SDS011;67802;50.846;7.958;2023-04-09T12:11:38;5.15;;;2.92;;
78508;SDS011;67802;50.846;7.958;2023-04-09T12:14:11;5.32;;;2.90;;
78508;SDS011;67802;50.846;7.958;2023-04-09T12:16:41;5.20;;;2.72;;
78508;SDS011;67802;50.846;7.958;2023-04-09T12:19:10;5.47;;;2.78;;
78508;SDS011;67802;50.846;7.958;2023-04-09T12:21:46;5.50;;;3.13;;
78508;SDS011;67802;50.846;7.958;2023-04-09T12:24:16;5.68;;;3.03;;
78508;SDS011;67802;50.846;7.958;2023-04-09T12:26:43;5.22;;;2.72;;
78508;SDS011;67802;50.846;7.958;2023-04-09T12:29:10;4.97;;;2.60;;
78508;SDS011;67802;50.846;7.958;2023-04-09T12:31:35;4.95;;;2.45;;
78508;SDS011;67802;50.846;7.958;2023-04-09T12:34:01;5.68;;;3.10;;
78508;SDS011;67802;50.846;7.958;2023-04-09T12:36:26;5.05;;;2.67;;
78508;SDS011;67802;50.846;7.958;2023-04-09T12:38:51;5.25;;;2.70;;
78508;SDS011;67802;50.846;7.958;2023-04-09T12:41:17;5.75;;;2.92;;
78508;SDS011;67802;50.846;7.958;2023-04-09T12:43:42;5.38;;;2.90;;
78508;SDS011;67802;50.846;7.958;2023-04-09T12:46:07;5.72;;;2.92;;
78508;SDS011;67802;50.846;7.958;2023-04-09T12:48:33;5.22;;;2.70;;
78508;SDS011;67802;50.846;7.958;2023-04-09T12:50:59;5.68;;;3.05;;
78508;SDS011;67802;50.846;7.958;2023-04-09T12:53:24;6.13;;;2.92;;
78508;SDS011;67802;50.846;7.958;2023-04-09T12:55:50;5.30;;;2.80;;
78508;SDS011;67802;50.846;7.958;2023-04-09T12:58:15;6.13;;;2.97;;
78508;SDS011;67802;50.846;7.958;2023-04-09T13:00:40;5.50;;;2.67;;
78508;SDS011;67802;50.846;7.958;2023-04-09T13:03:06;5.47;;;3.00;;
78508;SDS011;67802;50.846;7.958;2023-04-09T13:05:31;5.05;;;2.50;;
78508;SDS011;67802;50.846;7.958;2023-04-09T13:07:59;5.05;;;2.80;;
78508;SDS011;67802;50.846;7.958;2023-04-09T13:10:25;5.43;;;2.92;;
78508;SDS011;67802;50.846;7.958;2023-04-09T13:12:51;5.50;;;2.72;;
78508;SDS011;67802;50.846;7.958;2023-04-09T13:15:16;5.10;;;2.60;;
78508;SDS011;67802;50.846;7.958;2023-04-09T13:17:41;4.80;;;2.40;;
78508;SDS011;67802;50.846;7.958;2023-04-09T13:20:07;5.25;;;2.80;;
78508;SDS011;67802;50.846;7.958;2023-04-09T13:22:33;4.90;;;2.58;;
78508;SDS011;67802;50.846;7.958;2023-04-09T13:24:58;6.47;;;2.85;;
78508;SDS011;67802;50.846;7.958;2023-04-09T13:27:23;5.50;;;2.90;;
78508;SDS011;67802;50.846;7.958;2023-04-09T13:29:49;5.18;;;2.70;;
78508;SDS011;67802;50.846;7.958;2023-04-09T13:32:14;5.00;;;2.80;;
78508;SDS011;67802;50.846;7.958;2023-04-09T13:34:39;5.60;;;3.10;;
78508;SDS011;67802;50.846;7.958;2023-04-09T13:37:05;5.00;;;2.63;;
78508;SDS011;67802;50.846;7.958;2023-04-09T13:39:30;5.10;;;2.40;;
78508;SDS011;67802;50.846;7.958;2023-04-09T13:41:56;4.85;;;2.42;;
78508;SDS011;67802;50.846;7.958;2023-04-09T13:44:22;5.63;;;2.90;;
78508;SDS011;67802;50.846;7.958;2023-04-09T13:46:48;5.47;;;2.92;;
78508;SDS011;67802;50.846;7.958;2023-04-09T13:49:14;5.32;;;2.80;;
78508;SDS011;67802;50.846;7.958;2023-04-09T13:51:40;5.40;;;3.00;;
78508;SDS011;67802;50.846;7.958;2023-04-09T13:54:05;5.35;;;2.80;;
78508;SDS011;67802;50.846;7.958;2023-04-09T13:56:32;6.18;;;2.83;;
78508;SDS011;67802;50.846;7.958;2023-04-09T13:58:58;5.47;;;2.58;;
78508;SDS011;67802;50.846;7.958;2023-04-09T14:01:23;4.88;;;2.58;;
78508;SDS011;67802;50.846;7.958;2023-04-09T14:03:51;4.93;;;2.47;;
78508;SDS011;67802;50.846;7.958;2023-04-09T14:06:16;5.20;;;2.53;;
78508;SDS011;67802;50.846;7.958;2023-04-09T14:08:42;5.15;;;2.80;;
78508;SDS011;67802;50.846;7.958;2023-04-09T14:11:07;5.30;;;2.50;;
78508;SDS011;67802;50.846;7.958;2023-04-09T14:13:32;4.95;;;2.45;;
78508;SDS011;67802;50.846;7.958;2023-04-09T14:15:58;5.22;;;2.75;;
78508;SDS011;67802;50.846;7.958;2023-04-09T14:18:23;4.97;;;2.63;;
78508;SDS011;67802;50.846;7.958;2023-04-09T14:20:48;5.15;;;2.72;;
78508;SDS011;67802;50.846;7.958;2023-04-09T14:23:14;5.63;;;2.63;;
78508;SDS011;67802;50.846;7.958;2023-04-09T14:25:39;4.87;;;2.40;;
78508;SDS011;67802;50.846;7.958;2023-04-09T14:28:04;4.65;;;2.25;;
78508;SDS011;67802;50.846;7.958;2023-04-09T14:30:30;4.88;;;2.42;;
78508;SDS011;67802;50.846;7.958;2023-04-09T14:32:55;5.20;;;2.58;;
78508;SDS011;67802;50.846;7.958;2023-04-09T14:35:21;4.97;;;2.42;;
78508;SDS011;67802;50.846;7.958;2023-04-09T14:37:46;5.03;;;2.47;;
78508;SDS011;67802;50.846;7.958;2023-04-09T14:40:12;4.95;;;2.67;;
78508;SDS011;67802;50.846;7.958;2023-04-09T14:42:38;4.80;;;2.45;;
78508;SDS011;67802;50.846;7.958;2023-04-09T14:45:05;5.53;;;2.75;;
78508;SDS011;67802;50.846;7.958;2023-04-09T14:47:31;4.82;;;2.53;;
78508;SDS011;67802;50.846;7.958;2023-04-09T14:49:56;5.15;;;2.58;;
78508;SDS011;67802;50.846;7.958;2023-04-09T14:52:21;4.50;;;2.50;;
78508;SDS011;67802;50.846;7.958;2023-04-09T14:54:47;5.03;;;2.60;;
78508;SDS011;67802;50.846;7.958;2023-04-09T14:57:12;4.22;;;2.15;;
78508;SDS011;67802;50.846;7.958;2023-04-09T14:59:37;5.40;;;2.63;;
78508;SDS011;67802;50.846;7.958;2023-04-09T15:02:02;5.10;;;2.70;;
78508;SDS011;67802;50.846;7.958;2023-04-09T15:04:28;4.97;;;2.42;;
78508;SDS011;67802;50.846;7.958;2023-04-09T15:06:53;4.53;;;2.33;;
78508;SDS011;67802;50.846;7.958;2023-04-09T15:09:18;3.90;;;2.10;;
78508;SDS011;67802;50.846;7.958;2023-04-09T15:11:44;4.47;;;2.20;;
78508;SDS011;67802;50.846;7.958;2023-04-09T15:14:09;4.47;;;2.33;;
78508;SDS011;67802;50.846;7.958;2023-04-09T15:16:35;4.97;;;2.40;;
78508;SDS011;67802;50.846;7.958;2023-04-09T15:19:03;5.13;;;2.38;;